sensor_id;sensor_type;location;lat;lon;timestamp;pressure;altitude;pressure_sealevel;temperature;humidity
31501;BME280;31032;49.512;10.892;2022-08-19T00:01:49;97261.38;;;19.98;100.00
31501;BME280;31032;49.512;10.892;2022-08-19T00:04:16;97265.63;;;19.79;100.00
31501;BME280;31032;49.512;10.892;2022-08-19T00:06:45;97257.13;;;19.84;100.00
31501;BME280;31032;49.512;10.892;2022-08-19T00:09:13;97261.56;;;19.83;100.00
31501;BME280;31032;49.512;10.892;2022-08-19T00:11:40;97252.25;;;19.94;100.00
31501;BME280;31032;49.512;10.892;2022-08-19T00:14:07;97252.22;;;19.80;100.00
31501;BME280;31032;49.512;10.892;2022-08-19T00:16:34;97245.34;;;19.93;100.00
31501;BME280;31032;49.512;10.892;2022-08-19T00:19:00;97251.84;;;19.97;100.00
31501;BME280;31032;49.512;10.892;2022-08-19T00:21:26;97253.69;;;20.03;100.00
31501;BME280;31032;49.512;10.892;2022-08-19T00:23:53;97251.41;;;20.00;100.00
31501;BME280;31032;49.512;10.892;2022-08-19T00:26:19;97256.91;;;19.98;100.00
31501;BME280;31032;49.512;10.892;2022-08-19T00:28:45;97244.94;;;20.02;100.00
31501;BME280;31032;49.512;10.892;2022-08-19T00:31:11;97246.97;;;20.07;100.00
31501;BME280;31032;49.512;10.892;2022-08-19T00:33:36;97242.91;;;20.11;100.00
31501;BME280;31032;49.512;10.892;2022-08-19T00:36:04;97241.69;;;20.07;100.00
31501;BME280;31032;49.512;10.892;2022-08-19T00:38:31;97240.06;;;19.99;100.00
31501;BME280;31032;49.512;10.892;2022-08-19T00:40:57;97243.72;;;20.05;100.00
31501;BME280;31032;49.512;10.892;2022-08-19T00:43:25;97252.28;;;20.20;100.00
31501;BME280;31032;49.512;10.892;2022-08-19T00:45:51;97259.38;;;20.06;100.00
31501;BME280;31032;49.512;10.892;2022-08-19T00:48:18;97262.63;;;19.95;100.00
31501;BME280;31032;49.512;10.892;2022-08-19T00:50:44;97262.81;;;20.00;100.00
31501;BME280;31032;49.512;10.892;2022-08-19T00:53:12;97267.28;;;20.00;100.00
31501;BME280;31032;49.512;10.892;2022-08-19T00:55:42;97264.63;;;20.00;100.00
31501;BME280;31032;49.512;10.892;2022-08-19T00:58:11;97279.06;;;20.04;100.00
31501;BME280;31032;49.512;10.892;2022-08-19T01:00:38;97277.72;;;20.21;100.00
31501;BME280;31032;49.512;10.892;2022-08-19T01:03:09;97268.53;;;20.17;100.00
31501;BME280;31032;49.512;10.892;2022-08-19T01:05:35;97271.16;;;20.17;100.00
31501;BME280;31032;49.512;10.892;2022-08-19T01:08:04;97269.53;;;20.16;100.00
31501;BME280;31032;49.512;10.892;2022-08-19T01:10:33;97275.44;;;20.31;100.00
31501;BME280;31032;49.512;10.892;2022-08-19T01:13:01;97284.41;;;20.30;100.00
31501;BME280;31032;49.512;10.892;2022-08-19T01:15:32;97281.56;;;20.38;100.00
31501;BME280;31032;49.512;10.892;2022-08-19T01:18:01;97289.91;;;20.22;100.00
31501;BME280;31032;49.512;10.892;2022-08-19T01:20:29;97285.63;;;20.34;100.00
31501;BME280;31032;49.512;10.892;2022-08-19T01:22:58;97286.03;;;20.37;100.00
31501;BME280;31032;49.512;10.892;2022-08-19T01:25:29;97290.50;;;20.43;100.00
31501;BME280;31032;49.512;10.892;2022-08-19T01:27:57;97301.91;;;20.44;100.00
31501;BME280;31032;49.512;10.892;2022-08-19T01:30:29;97293.97;;;20.44;100.00
31501;BME280;31032;49.512;10.892;2022-08-19T01:32:56;97292.94;;;20.64;100.00
31501;BME280;31032;49.512;10.892;2022-08-19T01:35:23;97288.66;;;20.63;100.00
31501;BME280;31032;49.512;10.892;2022-08-19T01:37:57;97277.88;;;20.52;100.00
31501;BME280;31032;49.512;10.892;2022-08-19T01:40:25;97288.88;;;20.42;100.00
31501;BME280;31032;49.512;10.892;2022-08-19T01:42:52;97299.06;;;20.26;100.00
31501;BME280;31032;49.512;10.892;2022-08-19T01:45:19;97297.41;;;20.25;100.00
31501;BME280;31032;49.512;10.892;2022-08-19T01:47:44;97301.06;;;20.24;100.00
31501;BME280;31032;49.512;10.892;2022-08-19T01:50:11;97293.75;;;20.26;100.00
31501;BME280;31032;49.512;10.892;2022-08-19T01:52:39;97298.25;;;20.19;100.00
31501;BME280;31032;49.512;10.892;2022-08-19T01:55:08;97303.09;;;20.35;100.00
31501;BME280;31032;49.512;10.892;2022-08-19T01:57:34;97309.59;;;20.19;100.00
31501;BME280;31032;49.512;10.892;2022-08-19T02:00:01;97315.31;;;20.36;100.00
31501;BME280;31032;49.512;10.892;2022-08-19T02:02:27;97317.34;;;20.27;100.00
31501;BME280;31032;49.512;10.892;2022-08-19T02:04:52;97316.75;;;20.19;100.00
31501;BME280;31032;49.512;10.892;2022-08-19T02:07:21;97313.22;;;20.12;100.00
31501;BME280;31032;49.512;10.892;2022-08-19T02:09:47;97305.97;;;20.20;100.00
31501;BME280;31032;49.512;10.892;2022-08-19T02:12:14;97302.06;;;20.23;100.00
31501;BME280;31032;49.512;10.892;2022-08-19T02:14:39;97283.53;;;20.10;100.00
31501;BME280;31032;49.512;10.892;2022-08-19T02:17:05;97291.50;;;20.03;100.00
31501;BME280;31032;49.512;10.892;2022-08-19T02:19:30;97303.25;;;20.01;100.00
31501;BME280;31032;49.512;10.892;2022-08-19T02:21:58;97312.63;;;20.03;100.00
31501;BME280;31032;49.512;10.892;2022-08-19T02:24:25;97323.59;;;20.07;100.00
31501;BME280;31032;49.512;10.892;2022-08-19T02:26:50;97332.94;;;20.16;100.00
31501;BME280;31032;49.512;10.892;2022-08-19T02:29:16;97337.47;;;20.22;100.00
31501;BME280;31032;49.512;10.892;2022-08-19T02:31:41;97342.38;;;20.38;100.00
31501;BME280;31032;49.512;10.892;2022-08-19T02:34:07;97345.97;;;20.17;100.00
31501;BME280;31032;49.512;10.892;2022-08-19T02:36:32;97338.44;;;20.08;100.00
31501;BME280;31032;49.512;10.892;2022-08-19T02:38:57;97332.31;;;20.01;100.00
31501;BME280;31032;49.512;10.892;2022-08-19T02:41:27;97333.13;;;20.08;100.00
31501;BME280;31032;49.512;10.892;2022-08-19T02:43:54;97340.13;;;20.22;100.00
31501;BME280;31032;49.512;10.892;2022-08-19T02:46:24;97347.44;;;20.20;100.00
31501;BME280;31032;49.512;10.892;2022-08-19T02:48:50;97352.75;;;20.26;100.00
31501;BME280;31032;49.512;10.892;2022-08-19T02:51:24;97360.84;;;20.25;100.00
31501;BME280;31032;49.512;10.892;2022-08-19T02:53:50;97355.59;;;20.38;100.00
31501;BME280;31032;49.512;10.892;2022-08-19T02:56:16;97351.72;;;20.47;100.00
31501;BME280;31032;49.512;10.892;2022-08-19T02:58:43;97351.09;;;20.58;100.00
31501;BME280;31032;49.512;10.892;2022-08-19T03:01:09;97356.81;;;20.55;100.00
31501;BME280;31032;49.512;10.892;2022-08-19T03:03:36;97359.84;;;20.52;100.00
31501;BME280;31032;49.512;10.892;2022-08-19T03:06:10;97358.84;;;20.53;100.00
31501;BME280;31032;49.512;10.892;2022-08-19T03:08:37;97355.38;;;20.33;100.00
31501;BME280;31032;49.512;10.892;2022-08-19T03:11:03;97348.69;;;20.30;100.00
31501;BME280;31032;49.512;10.892;2022-08-19T03:13:28;97349.88;;;20.28;100.00
31501;BME280;31032;49.512;10.892;2022-08-19T03:15:54;97349.06;;;20.21;100.00
31501;BME280;31032;49.512;10.892;2022-08-19T03:18:19;97343.50;;;20.09;100.00
31501;BME280;31032;49.512;10.892;2022-08-19T03:20:50;97337.00;;;20.12;100.00
31501;BME280;31032;49.512;10.892;2022-08-19T03:23:18;97331.94;;;20.10;100.00
31501;BME280;31032;49.512;10.892;2022-08-19T03:25:46;97336.81;;;20.07;100.00
31501;BME280;31032;49.512;10.892;2022-08-19T03:28:13;97337.25;;;20.17;100.00
31501;BME280;31032;49.512;10.892;2022-08-19T03:30:40;97330.28;;;20.03;100.00
31501;BME280;31032;49.512;10.892;2022-08-19T03:33:07;97333.31;;;20.00;100.00
31501;BME280;31032;49.512;10.892;2022-08-19T03:35:33;97328.47;;;20.10;100.00
31501;BME280;31032;49.512;10.892;2022-08-19T03:38:01;97331.94;;;20.17;100.00
31501;BME280;31032;49.512;10.892;2022-08-19T03:40:27;97326.00;;;20.02;100.00
31501;BME280;31032;49.512;10.892;2022-08-19T03:42:52;97322.38;;;20.03;100.00
31501;BME280;31032;49.512;10.892;2022-08-19T03:45:17;97318.72;;;19.97;100.00
31501;BME280;31032;49.512;10.892;2022-08-19T03:47:43;97310.38;;;19.94;100.00
31501;BME280;31032;49.512;10.892;2022-08-19T03:50:09;97309.13;;;19.96;100.00
31501;BME280;31032;49.512;10.892;2022-08-19T03:52:34;97314.03;;;19.99;100.00
31501;BME280;31032;49.512;10.892;2022-08-19T03:55:01;97313.22;;;19.99;100.00
31501;BME280;31032;49.512;10.892;2022-08-19T03:57:26;97317.69;;;19.92;100.00
31501;BME280;31032;49.512;10.892;2022-08-19T03:59:52;97302.25;;;19.95;100.00
31501;BME280;31032;49.512;10.892;2022-08-19T04:02:17;97299.59;;;19.82;100.00
31501;BME280;31032;49.512;10.892;2022-08-19T04:04:43;97303.81;;;19.76;100.00
31501;BME280;31032;49.512;10.892;2022-08-19T04:07:10;97306.88;;;19.80;100.00
31501;BME280;31032;49.512;10.892;2022-08-19T04:09:37;97296.13;;;19.88;100.00
31501;BME280;31032;49.512;10.892;2022-08-19T04:12:03;97291.44;;;19.84;100.00
31501;BME280;31032;49.512;10.892;2022-08-19T04:14:31;97293.28;;;19.83;100.00
31501;BME280;31032;49.512;10.892;2022-08-19T04:16:58;97301.00;;;19.85;100.00
31501;BME280;31032;49.512;10.892;2022-08-19T04:19:24;97291.22;;;19.78;100.00
31501;BME280;31032;49.512;10.892;2022-08-19T04:21:51;97300.16;;;19.77;100.00
31501;BME280;31032;49.512;10.892;2022-08-19T04:24:18;97296.94;;;19.82;100.00
31501;BME280;31032;49.512;10.892;2022-08-19T04:26:45;97298.53;;;19.76;100.00
31501;BME280;31032;49.512;10.892;2022-08-19T04:29:16;97309.75;;;19.92;100.00
31501;BME280;31032;49.512;10.892;2022-08-19T04:31:44;97328.63;;;19.82;100.00
31501;BME280;31032;49.512;10.892;2022-08-19T04:34:11;97325.00;;;19.90;100.00
31501;BME280;31032;49.512;10.892;2022-08-19T04:36:39;97330.69;;;20.00;100.00
31501;BME280;31032;49.512;10.892;2022-08-19T04:39:08;97335.56;;;19.90;100.00
31501;BME280;31032;49.512;10.892;2022-08-19T04:41:34;97340.84;;;19.90;100.00
31501;BME280;31032;49.512;10.892;2022-08-19T04:44:19;97338.00;;;19.98;100.00
31501;BME280;31032;49.512;10.892;2022-08-19T04:46:49;97337.59;;;19.88;100.00
31501;BME280;31032;49.512;10.892;2022-08-19T04:49:18;97351.81;;;20.00;100.00
31501;BME280;31032;49.512;10.892;2022-08-19T04:51:45;97356.72;;;20.03;100.00
31501;BME280;31032;49.512;10.892;2022-08-19T04:54:16;97365.25;;;20.05;100.00
31501;BME280;31032;49.512;10.892;2022-08-19T04:56:42;97367.09;;;20.11;100.00
31501;BME280;31032;49.512;10.892;2022-08-19T04:59:07;97378.69;;;20.10;100.00
31501;BME280;31032;49.512;10.892;2022-08-19T05:01:33;97378.34;;;20.26;100.00
31501;BME280;31032;49.512;10.892;2022-08-19T05:04:01;97375.09;;;20.24;100.00
31501;BME280;31032;49.512;10.892;2022-08-19T05:06:27;97383.66;;;20.39;100.00
31501;BME280;31032;49.512;10.892;2022-08-19T05:08:54;97377.72;;;20.24;100.00
31501;BME280;31032;49.512;10.892;2022-08-19T05:11:25;97382.81;;;20.19;100.00
31501;BME280;31032;49.512;10.892;2022-08-19T05:13:51;97388.94;;;20.32;100.00
31501;BME280;31032;49.512;10.892;2022-08-19T05:16:21;97395.44;;;20.30;100.00
31501;BME280;31032;49.512;10.892;2022-08-19T05:18:47;97397.47;;;20.34;100.00
31501;BME280;31032;49.512;10.892;2022-08-19T05:21:32;97395.03;;;20.33;100.00
31501;BME280;31032;49.512;10.892;2022-08-19T05:24:18;97400.72;;;20.30;100.00
31501;BME280;31032;49.512;10.892;2022-08-19T05:26:47;97408.03;;;20.34;100.00
31501;BME280;31032;49.512;10.892;2022-08-19T05:29:18;97420.22;;;20.29;100.00
31501;BME280;31032;49.512;10.892;2022-08-19T05:31:44;97423.06;;;20.21;100.00
31501;BME280;31032;49.512;10.892;2022-08-19T05:34:11;97429.56;;;20.25;100.00
31501;BME280;31032;49.512;10.892;2022-08-19T05:36:40;97430.81;;;20.35;100.00
31501;BME280;31032;49.512;10.892;2022-08-19T05:39:07;97428.59;;;20.39;100.00
31501;BME280;31032;49.512;10.892;2022-08-19T05:41:33;97414.97;;;20.42;100.00
31501;BME280;31032;49.512;10.892;2022-08-19T05:44:03;97416.81;;;20.48;100.00
31501;BME280;31032;49.512;10.892;2022-08-19T05:46:31;97413.38;;;20.60;100.00
31501;BME280;31032;49.512;10.892;2022-08-19T05:48:56;97411.56;;;20.74;100.00
31501;BME280;31032;49.512;10.892;2022-08-19T05:51:23;97419.06;;;20.84;100.00
31501;BME280;31032;49.512;10.892;2022-08-19T05:53:49;97415.41;;;20.72;100.00
31501;BME280;31032;49.512;10.892;2022-08-19T05:56:15;97419.91;;;20.84;100.00
31501;BME280;31032;49.512;10.892;2022-08-19T05:58:42;97418.06;;;20.98;100.00
31501;BME280;31032;49.512;10.892;2022-08-19T06:01:17;97422.34;;;20.59;100.00
31501;BME280;31032;49.512;10.892;2022-08-19T06:03:43;97431.69;;;20.62;100.00
31501;BME280;31032;49.512;10.892;2022-08-19T06:06:10;97420.09;;;20.69;100.00
31501;BME280;31032;49.512;10.892;2022-08-19T06:08:36;97427.00;;;20.77;100.00
31501;BME280;31032;49.512;10.892;2022-08-19T06:13:49;97412.34;;;20.68;100.00
31501;BME280;31032;49.512;10.892;2022-08-19T06:16:17;97409.31;;;20.64;100.00
31501;BME280;31032;49.512;10.892;2022-08-19T06:18:48;97411.31;;;20.56;100.00
31501;BME280;31032;49.512;10.892;2022-08-19T06:21:15;97407.88;;;20.62;100.00
31501;BME280;31032;49.512;10.892;2022-08-19T06:23:40;97411.13;;;20.51;100.00
31501;BME280;31032;49.512;10.892;2022-08-19T06:26:06;97420.06;;;20.56;100.00
31501;BME280;31032;49.512;10.892;2022-08-19T06:28:32;97403.63;;;20.61;100.00
31501;BME280;31032;49.512;10.892;2022-08-19T06:30:58;97408.91;;;20.74;100.00
31501;BME280;31032;49.512;10.892;2022-08-19T06:33:23;97406.44;;;20.66;100.00
31501;BME280;31032;49.512;10.892;2022-08-19T06:35:49;97415.63;;;20.70;100.00
31501;BME280;31032;49.512;10.892;2022-08-19T06:38:14;97402.19;;;20.78;100.00
31501;BME280;31032;49.512;10.892;2022-08-19T06:40:39;97410.13;;;20.85;100.00
31501;BME280;31032;49.512;10.892;2022-08-19T06:43:05;97402.38;;;20.83;100.00
31501;BME280;31032;49.512;10.892;2022-08-19T06:45:30;97404.00;;;20.78;100.00
31501;BME280;31032;49.512;10.892;2022-08-19T06:47:56;97405.25;;;20.82;100.00
31501;BME280;31032;49.512;10.892;2022-08-19T06:50:24;97414.19;;;20.74;100.00
31501;BME280;31032;49.512;10.892;2022-08-19T06:52:59;97411.75;;;20.73;100.00
31501;BME280;31032;49.512;10.892;2022-08-19T06:55:24;97415.19;;;20.93;100.00
31501;BME280;31032;49.512;10.892;2022-08-19T06:57:49;97418.88;;;20.72;100.00
31501;BME280;31032;49.512;10.892;2022-08-19T07:00:18;97412.97;;;20.70;100.00
31501;BME280;31032;49.512;10.892;2022-08-19T07:02:44;97421.75;;;20.90;100.00
31501;BME280;31032;49.512;10.892;2022-08-19T07:05:09;97433.34;;;21.02;100.00
31501;BME280;31032;49.512;10.892;2022-08-19T07:07:35;97445.56;;;20.90;100.00
31501;BME280;31032;49.512;10.892;2022-08-19T07:10:01;97446.34;;;20.97;100.00
31501;BME280;31032;49.512;10.892;2022-08-19T07:12:28;97450.81;;;20.97;100.00
31501;BME280;31032;49.512;10.892;2022-08-19T07:14:54;97451.03;;;20.89;100.00
31501;BME280;31032;49.512;10.892;2022-08-19T07:17:19;97458.56;;;20.92;100.00
31501;BME280;31032;49.512;10.892;2022-08-19T07:19:45;97451.63;;;20.91;100.00
31501;BME280;31032;49.512;10.892;2022-08-19T07:22:11;97458.56;;;20.85;100.00
31501;BME280;31032;49.512;10.892;2022-08-19T07:24:37;97454.06;;;20.79;100.00
31501;BME280;31032;49.512;10.892;2022-08-19T07:27:04;97457.31;;;20.81;100.00
31501;BME280;31032;49.512;10.892;2022-08-19T07:29:32;97449.41;;;20.75;100.00
31501;BME280;31032;49.512;10.892;2022-08-19T07:31:59;97459.59;;;20.97;100.00
31501;BME280;31032;49.512;10.892;2022-08-19T07:34:26;97465.31;;;21.01;100.00
31501;BME280;31032;49.512;10.892;2022-08-19T07:36:53;97469.16;;;20.92;100.00
31501;BME280;31032;49.512;10.892;2022-08-19T07:39:27;97464.66;;;20.99;99.81
31501;BME280;31032;49.512;10.892;2022-08-19T07:41:54;97469.97;;;20.86;99.77
31501;BME280;31032;49.512;10.892;2022-08-19T07:44:21;97467.09;;;20.87;97.90
31501;BME280;31032;49.512;10.892;2022-08-19T07:46:49;97473.00;;;20.76;100.00
31501;BME280;31032;49.512;10.892;2022-08-19T07:49:16;97480.53;;;20.86;99.92
31501;BME280;31032;49.512;10.892;2022-08-19T07:51:49;97480.94;;;20.89;99.99
31501;BME280;31032;49.512;10.892;2022-08-19T07:54:16;97479.28;;;20.75;100.00
31501;BME280;31032;49.512;10.892;2022-08-19T07:56:41;97478.09;;;20.78;100.00
31501;BME280;31032;49.512;10.892;2022-08-19T07:59:07;97480.53;;;20.79;100.00
31501;BME280;31032;49.512;10.892;2022-08-19T08:01:34;97488.06;;;20.69;100.00
31501;BME280;31032;49.512;10.892;2022-08-19T08:04:00;97485.81;;;20.66;100.00
31501;BME280;31032;49.512;10.892;2022-08-19T08:06:44;97487.88;;;20.84;100.00
31501;BME280;31032;49.512;10.892;2022-08-19T08:09:34;97481.53;;;20.65;100.00
31501;BME280;31032;49.512;10.892;2022-08-19T08:12:12;97487.44;;;20.74;100.00
31501;BME280;31032;49.512;10.892;2022-08-19T08:14:46;97488.06;;;20.69;100.00
31501;BME280;31032;49.512;10.892;2022-08-19T08:17:17;97476.06;;;20.86;100.00
31501;BME280;31032;49.512;10.892;2022-08-19T08:19:44;97477.25;;;20.77;100.00
31501;BME280;31032;49.512;10.892;2022-08-19T08:22:11;97469.75;;;20.87;100.00
31501;BME280;31032;49.512;10.892;2022-08-19T08:25:08;97461.81;;;20.87;100.00
31501;BME280;31032;49.512;10.892;2022-08-19T08:27:41;97467.09;;;21.00;100.00
31501;BME280;31032;49.512;10.892;2022-08-19T08:30:09;97474.84;;;20.95;100.00
31501;BME280;31032;49.512;10.892;2022-08-19T08:32:36;97474.25;;;20.93;100.00
31501;BME280;31032;49.512;10.892;2022-08-19T08:35:06;97477.53;;;21.08;98.78
31501;BME280;31032;49.512;10.892;2022-08-19T08:37:31;97468.34;;;20.91;100.00
31501;BME280;31032;49.512;10.892;2022-08-19T08:39:57;97461.19;;;20.85;100.00
31501;BME280;31032;49.512;10.892;2022-08-19T08:42:29;97449.19;;;20.89;100.00
31501;BME280;31032;49.512;10.892;2022-08-19T08:45:13;97439.47;;;21.03;100.00
31501;BME280;31032;49.512;10.892;2022-08-19T08:47:43;97427.63;;;21.18;99.46
31501;BME280;31032;49.512;10.892;2022-08-19T08:50:30;97431.28;;;21.30;98.01
31501;BME280;31032;49.512;10.892;2022-08-19T08:53:01;97440.88;;;21.25;98.22
31501;BME280;31032;49.512;10.892;2022-08-19T08:55:28;97439.44;;;21.35;98.23
31501;BME280;31032;49.512;10.892;2022-08-19T08:58:04;97449.22;;;21.35;98.36
31501;BME280;31032;49.512;10.892;2022-08-19T09:00:37;97466.31;;;21.32;98.62
31501;BME280;31032;49.512;10.892;2022-08-19T09:03:07;97466.72;;;21.29;99.30
31501;BME280;31032;49.512;10.892;2022-08-19T09:06:04;97473.66;;;21.30;100.00
31501;BME280;31032;49.512;10.892;2022-08-19T09:08:51;97469.97;;;21.51;99.79
31501;BME280;31032;49.512;10.892;2022-08-19T09:14:02;97462.44;;;21.41;99.52
31501;BME280;31032;49.512;10.892;2022-08-19T09:16:31;97463.06;;;21.11;99.51
31501;BME280;31032;49.512;10.892;2022-08-19T09:19:08;97464.28;;;21.08;100.00
31501;BME280;31032;49.512;10.892;2022-08-19T09:21:34;97463.88;;;21.18;100.00
31501;BME280;31032;49.512;10.892;2022-08-19T09:24:01;97471.22;;;21.22;98.65
31501;BME280;31032;49.512;10.892;2022-08-19T09:26:27;97467.16;;;21.26;99.11
31501;BME280;31032;49.512;10.892;2022-08-19T09:28:53;97469.13;;;20.98;99.64
31501;BME280;31032;49.512;10.892;2022-08-19T09:31:23;97476.06;;;20.99;100.00
31501;BME280;31032;49.512;10.892;2022-08-19T09:33:49;97471.00;;;21.04;98.99
31501;BME280;31032;49.512;10.892;2022-08-19T09:36:17;97470.41;;;21.02;100.00
31501;BME280;31032;49.512;10.892;2022-08-19T09:38:44;97478.56;;;21.20;99.00
31501;BME280;31032;49.512;10.892;2022-08-19T09:41:16;97480.34;;;21.00;99.37
31501;BME280;31032;49.512;10.892;2022-08-19T09:43:45;97478.94;;;21.04;100.00
31501;BME280;31032;49.512;10.892;2022-08-19T09:46:10;97482.22;;;21.19;100.00
31501;BME280;31032;49.512;10.892;2022-08-19T09:48:37;97481.41;;;21.38;99.54
31501;BME280;31032;49.512;10.892;2022-08-19T09:51:05;97478.97;;;21.30;99.28
31501;BME280;31032;49.512;10.892;2022-08-19T09:53:31;97471.22;;;21.48;98.13
31501;BME280;31032;49.512;10.892;2022-08-19T09:55:57;97462.84;;;21.51;98.43
31501;BME280;31032;49.512;10.892;2022-08-19T09:58:22;97462.19;;;21.63;98.02
31501;BME280;31032;49.512;10.892;2022-08-19T10:00:53;97457.34;;;21.33;98.82
31501;BME280;31032;49.512;10.892;2022-08-19T10:03:20;97465.09;;;21.28;98.11
31501;BME280;31032;49.512;10.892;2022-08-19T10:05:45;97459.19;;;21.39;99.37
31501;BME280;31032;49.512;10.892;2022-08-19T10:08:16;97465.50;;;21.38;98.09
31501;BME280;31032;49.512;10.892;2022-08-19T10:10:42;97467.34;;;21.44;98.91
31501;BME280;31032;49.512;10.892;2022-08-19T10:13:09;97472.00;;;21.62;96.88
31501;BME280;31032;49.512;10.892;2022-08-19T10:15:34;97471.38;;;21.60;97.45
31501;BME280;31032;49.512;10.892;2022-08-19T10:18:00;97471.59;;;21.45;97.65
31501;BME280;31032;49.512;10.892;2022-08-19T10:20:25;97473.44;;;21.51;98.47
31501;BME280;31032;49.512;10.892;2022-08-19T10:22:51;97474.28;;;21.32;97.75
31501;BME280;31032;49.512;10.892;2022-08-19T10:25:16;97468.94;;;21.45;96.14
31501;BME280;31032;49.512;10.892;2022-08-19T10:27:42;97474.47;;;21.37;97.67
31501;BME280;31032;49.512;10.892;2022-08-19T10:30:08;97487.91;;;21.36;97.95
31501;BME280;31032;49.512;10.892;2022-08-19T10:32:34;97479.34;;;21.27;97.12
31501;BME280;31032;49.512;10.892;2022-08-19T10:35:00;97484.66;;;21.27;97.35
31501;BME280;31032;49.512;10.892;2022-08-19T10:37:26;97478.53;;;21.33;97.00
31501;BME280;31032;49.512;10.892;2022-08-19T10:39:51;97473.63;;;21.43;97.30
31501;BME280;31032;49.512;10.892;2022-08-19T10:42:16;97479.75;;;21.37;97.28
31501;BME280;31032;49.512;10.892;2022-08-19T10:44:43;97478.13;;;21.36;97.44
31501;BME280;31032;49.512;10.892;2022-08-19T10:47:10;97489.94;;;21.34;97.51
31501;BME280;31032;49.512;10.892;2022-08-19T10:49:36;97483.44;;;21.36;99.34
31501;BME280;31032;49.512;10.892;2022-08-19T10:52:21;97483.63;;;21.48;97.02
31501;BME280;31032;49.512;10.892;2022-08-19T10:55:02;97478.53;;;21.46;97.40
31501;BME280;31032;49.512;10.892;2022-08-19T10:57:47;97481.38;;;21.51;97.19
31501;BME280;31032;49.512;10.892;2022-08-19T11:00:13;97481.78;;;21.62;98.01
31501;BME280;31032;49.512;10.892;2022-08-19T11:02:38;97477.28;;;21.49;98.29
31501;BME280;31032;49.512;10.892;2022-08-19T11:05:04;97473.44;;;21.51;96.99
31501;BME280;31032;49.512;10.892;2022-08-19T11:07:30;97471.78;;;21.64;97.18
31501;BME280;31032;49.512;10.892;2022-08-19T11:09:56;97475.44;;;21.69;96.06
31501;BME280;31032;49.512;10.892;2022-08-19T11:12:21;97482.56;;;21.75;95.90
31501;BME280;31032;49.512;10.892;2022-08-19T11:14:46;97482.75;;;21.87;97.24
31501;BME280;31032;49.512;10.892;2022-08-19T11:17:15;97481.31;;;21.91;96.72
31501;BME280;31032;49.512;10.892;2022-08-19T11:19:40;97485.81;;;21.84;95.51
31501;BME280;31032;49.512;10.892;2022-08-19T11:22:08;97475.22;;;21.71;96.49
31501;BME280;31032;49.512;10.892;2022-08-19T11:24:35;97480.50;;;21.77;97.08
31501;BME280;31032;49.512;10.892;2022-08-19T11:27:04;97487.03;;;21.75;98.10
31501;BME280;31032;49.512;10.892;2022-08-19T11:29:31;97471.56;;;21.72;96.50
31501;BME280;31032;49.512;10.892;2022-08-19T11:31:57;97478.03;;;21.76;96.36
31501;BME280;31032;49.512;10.892;2022-08-19T11:34:25;97478.28;;;21.68;96.60
31501;BME280;31032;49.512;10.892;2022-08-19T11:36:53;97483.34;;;21.76;96.29
31501;BME280;31032;49.512;10.892;2022-08-19T11:39:21;97480.94;;;21.68;96.86
31501;BME280;31032;49.512;10.892;2022-08-19T11:41:47;97480.50;;;21.77;96.90
31501;BME280;31032;49.512;10.892;2022-08-19T11:44:12;97479.28;;;21.86;95.93
31501;BME280;31032;49.512;10.892;2022-08-19T11:46:40;97478.03;;;21.95;96.67
31501;BME280;31032;49.512;10.892;2022-08-19T11:49:06;97476.75;;;22.11;95.34
31501;BME280;31032;49.512;10.892;2022-08-19T11:51:32;97466.03;;;21.93;94.40
31501;BME280;31032;49.512;10.892;2022-08-19T11:53:59;97466.53;;;22.14;95.15
31501;BME280;31032;49.512;10.892;2022-08-19T11:56:26;97462.88;;;22.15;96.18
31501;BME280;31032;49.512;10.892;2022-08-19T11:58:52;97460.84;;;22.11;95.77
31501;BME280;31032;49.512;10.892;2022-08-19T12:01:20;97459.44;;;22.08;95.83
31501;BME280;31032;49.512;10.892;2022-08-19T12:03:47;97456.41;;;21.98;95.05
31501;BME280;31032;49.512;10.892;2022-08-19T12:06:17;97447.25;;;21.94;96.61
31501;BME280;31032;49.512;10.892;2022-08-19T12:08:43;97458.91;;;21.87;97.79
31501;BME280;31032;49.512;10.892;2022-08-19T12:11:10;97464.59;;;21.84;98.45
31501;BME280;31032;49.512;10.892;2022-08-19T12:13:36;97460.94;;;21.85;97.93
31501;BME280;31032;49.512;10.892;2022-08-19T12:16:18;97469.50;;;21.87;98.04
31501;BME280;31032;49.512;10.892;2022-08-19T12:18:45;97462.94;;;21.89;96.83
31501;BME280;31032;49.512;10.892;2022-08-19T12:21:20;97461.75;;;21.79;100.00
31501;BME280;31032;49.512;10.892;2022-08-19T12:23:50;97466.88;;;21.74;100.00
31501;BME280;31032;49.512;10.892;2022-08-19T12:26:17;97465.47;;;21.45;100.00
31501;BME280;31032;49.512;10.892;2022-08-19T12:28:43;97463.03;;;21.43;100.00
31501;BME280;31032;49.512;10.892;2022-08-19T12:31:09;97468.13;;;21.58;100.00
31501;BME280;31032;49.512;10.892;2022-08-19T12:33:37;97474.84;;;21.47;100.00
31501;BME280;31032;49.512;10.892;2022-08-19T12:36:05;97477.75;;;21.26;100.00
31501;BME280;31032;49.512;10.892;2022-08-19T12:38:31;97478.31;;;21.41;100.00
31501;BME280;31032;49.512;10.892;2022-08-19T12:40:57;97476.91;;;21.26;100.00
31501;BME280;31032;49.512;10.892;2022-08-19T12:43:23;97470.41;;;21.02;100.00
31501;BME280;31032;49.512;10.892;2022-08-19T12:45:49;97466.72;;;20.90;100.00
31501;BME280;31032;49.512;10.892;2022-08-19T12:48:14;97464.28;;;20.95;100.00
31501;BME280;31032;49.512;10.892;2022-08-19T12:50:41;97471.97;;;20.77;100.00
31501;BME280;31032;49.512;10.892;2022-08-19T12:53:07;97468.94;;;20.74;100.00